sensor_id;sensor_type;location;lat;lon;timestamp;P1;durP1;ratioP1;P2;durP2;ratioP2
60426;SDS011;46274;47.168;27.604;2023-12-20T00:03:47;13.10;;;5.13;;
60426;SDS011;46274;47.168;27.604;2023-12-20T00:16:30;12.33;;;4.70;;
60426;SDS011;46274;47.168;27.604;2023-12-20T00:22:35;9.27;;;4.20;;
60426;SDS011;46274;47.168;27.604;2023-12-20T00:28:42;6.97;;;3.13;;
60426;SDS011;46274;47.168;27.604;2023-12-20T00:34:53;17.80;;;6.23;;
60426;SDS011;46274;47.168;27.604;2023-12-20T00:40:55;14.07;;;5.53;;
60426;SDS011;46274;47.168;27.604;2023-12-20T00:47:06;7.70;;;3.90;;
60426;SDS011;46274;47.168;27.604;2023-12-20T00:53:16;8.23;;;4.50;;
60426;SDS011;46274;47.168;27.604;2023-12-20T00:59:27;9.17;;;4.53;;
60426;SDS011;46274;47.168;27.604;2023-12-20T01:05:33;10.17;;;3.87;;
60426;SDS011;46274;47.168;27.604;2023-12-20T01:11:36;7.77;;;3.47;;
60426;SDS011;46274;47.168;27.604;2023-12-20T01:17:49;8.40;;;3.70;;
60426;SDS011;46274;47.168;27.604;2023-12-20T01:23:58;9.23;;;3.40;;
60426;SDS011;46274;47.168;27.604;2023-12-20T01:30:30;15.17;;;5.40;;
60426;SDS011;46274;47.168;27.604;2023-12-20T01:36:41;8.63;;;3.17;;
60426;SDS011;46274;47.168;27.604;2023-12-20T01:42:44;4.83;;;2.37;;
60426;SDS011;46274;47.168;27.604;2023-12-20T01:48:58;5.63;;;2.60;;
60426;SDS011;46274;47.168;27.604;2023-12-20T01:55:14;5.90;;;2.27;;
60426;SDS011;46274;47.168;27.604;2023-12-20T02:01:30;6.30;;;2.17;;
60426;SDS011;46274;47.168;27.604;2023-12-20T02:07:49;6.30;;;2.87;;
60426;SDS011;46274;47.168;27.604;2023-12-20T02:14:05;7.87;;;2.57;;
60426;SDS011;46274;47.168;27.604;2023-12-20T02:20:18;4.37;;;1.90;;
60426;SDS011;46274;47.168;27.604;2023-12-20T02:26:23;3.00;;;1.67;;
60426;SDS011;46274;47.168;27.604;2023-12-20T02:32:32;2.80;;;1.53;;
60426;SDS011;46274;47.168;27.604;2023-12-20T02:38:34;3.53;;;1.40;;
60426;SDS011;46274;47.168;27.604;2023-12-20T02:44:47;5.73;;;2.63;;
60426;SDS011;46274;47.168;27.604;2023-12-20T02:50:57;5.27;;;2.40;;
60426;SDS011;46274;47.168;27.604;2023-12-20T02:57:05;5.13;;;2.07;;
60426;SDS011;46274;47.168;27.604;2023-12-20T03:03:09;5.53;;;1.90;;
60426;SDS011;46274;47.168;27.604;2023-12-20T03:09:24;5.40;;;2.40;;
60426;SDS011;46274;47.168;27.604;2023-12-20T03:15:29;6.27;;;2.50;;
60426;SDS011;46274;47.168;27.604;2023-12-20T03:21:32;6.80;;;1.73;;
60426;SDS011;46274;47.168;27.604;2023-12-20T03:27:50;5.43;;;1.90;;
60426;SDS011;46274;47.168;27.604;2023-12-20T03:34:01;4.83;;;2.13;;
60426;SDS011;46274;47.168;27.604;2023-12-20T03:40:10;4.37;;;1.37;;
60426;SDS011;46274;47.168;27.604;2023-12-20T03:46:25;5.17;;;2.13;;
60426;SDS011;46274;47.168;27.604;2023-12-20T03:52:39;6.73;;;2.47;;
60426;SDS011;46274;47.168;27.604;2023-12-20T03:58:49;7.87;;;2.90;;
60426;SDS011;46274;47.168;27.604;2023-12-20T04:05:06;11.30;;;4.37;;
60426;SDS011;46274;47.168;27.604;2023-12-20T04:11:28;7.90;;;3.27;;
60426;SDS011;46274;47.168;27.604;2023-12-20T04:24:07;7.50;;;2.47;;
60426;SDS011;46274;47.168;27.604;2023-12-20T04:30:17;15.03;;;5.20;;
60426;SDS011;46274;47.168;27.604;2023-12-20T04:36:19;12.87;;;6.10;;
60426;SDS011;46274;47.168;27.604;2023-12-20T04:42:40;14.20;;;4.47;;
60426;SDS011;46274;47.168;27.604;2023-12-20T04:49:29;125.63;;;44.13;;
60426;SDS011;46274;47.168;27.604;2023-12-20T04:55:50;14.33;;;5.07;;
60426;SDS011;46274;47.168;27.604;2023-12-20T05:01:56;12.70;;;4.70;;
60426;SDS011;46274;47.168;27.604;2023-12-20T05:08:15;13.23;;;5.03;;
60426;SDS011;46274;47.168;27.604;2023-12-20T05:14:39;12.30;;;5.47;;
60426;SDS011;46274;47.168;27.604;2023-12-20T05:20:53;9.20;;;4.17;;
60426;SDS011;46274;47.168;27.604;2023-12-20T05:26:59;17.07;;;6.57;;
60426;SDS011;46274;47.168;27.604;2023-12-20T05:33:02;11.97;;;3.97;;
60426;SDS011;46274;47.168;27.604;2023-12-20T05:39:14;14.33;;;5.23;;
60426;SDS011;46274;47.168;27.604;2023-12-20T05:45:28;12.97;;;5.23;;
60426;SDS011;46274;47.168;27.604;2023-12-20T05:51:34;4.87;;;2.23;;
60426;SDS011;46274;47.168;27.604;2023-12-20T05:57:46;24.80;;;6.57;;
60426;SDS011;46274;47.168;27.604;2023-12-20T06:04:02;74.40;;;12.40;;
60426;SDS011;46274;47.168;27.604;2023-12-20T06:10:11;18.33;;;8.10;;
60426;SDS011;46274;47.168;27.604;2023-12-20T06:16:23;20.30;;;7.13;;
60426;SDS011;46274;47.168;27.604;2023-12-20T06:22:26;18.43;;;7.33;;
60426;SDS011;46274;47.168;27.604;2023-12-20T06:28:37;29.77;;;12.70;;
60426;SDS011;46274;47.168;27.604;2023-12-20T06:34:42;37.13;;;15.03;;
60426;SDS011;46274;47.168;27.604;2023-12-20T06:40:53;421.40;;;188.20;;
60426;SDS011;46274;47.168;27.604;2023-12-20T06:46:56;53.53;;;22.63;;
60426;SDS011;46274;47.168;27.604;2023-12-20T06:53:01;74.37;;;27.30;;
60426;SDS011;46274;47.168;27.604;2023-12-20T06:59:13;22.60;;;9.70;;
60426;SDS011;46274;47.168;27.604;2023-12-20T07:05:17;31.63;;;11.47;;
60426;SDS011;46274;47.168;27.604;2023-12-20T07:11:25;20.10;;;7.03;;
60426;SDS011;46274;47.168;27.604;2023-12-20T07:17:28;22.23;;;8.60;;
60426;SDS011;46274;47.168;27.604;2023-12-20T07:23:35;30.83;;;12.43;;
60426;SDS011;46274;47.168;27.604;2023-12-20T07:29:37;23.27;;;7.30;;
60426;SDS011;46274;47.168;27.604;2023-12-20T07:35:39;16.47;;;7.23;;
60426;SDS011;46274;47.168;27.604;2023-12-20T07:41:45;21.63;;;7.73;;
60426;SDS011;46274;47.168;27.604;2023-12-20T07:47:55;19.90;;;8.57;;
60426;SDS011;46274;47.168;27.604;2023-12-20T07:53:59;17.13;;;8.33;;
60426;SDS011;46274;47.168;27.604;2023-12-20T08:00:13;22.97;;;8.40;;
60426;SDS011;46274;47.168;27.604;2023-12-20T08:06:16;27.40;;;9.10;;
60426;SDS011;46274;47.168;27.604;2023-12-20T08:12:20;26.77;;;8.97;;
60426;SDS011;46274;47.168;27.604;2023-12-20T08:18:55;34.40;;;11.33;;
60426;SDS011;46274;47.168;27.604;2023-12-20T08:24:58;37.10;;;14.13;;
60426;SDS011;46274;47.168;27.604;2023-12-20T08:31:04;50.67;;;17.83;;
60426;SDS011;46274;47.168;27.604;2023-12-20T08:37:07;344.00;;;125.97;;
60426;SDS011;46274;47.168;27.604;2023-12-20T08:43:09;350.30;;;94.63;;
60426;SDS011;46274;47.168;27.604;2023-12-20T08:49:12;82.90;;;25.97;;
60426;SDS011;46274;47.168;27.604;2023-12-20T08:55:34;41.13;;;16.80;;
60426;SDS011;46274;47.168;27.604;2023-12-20T09:01:45;41.10;;;15.10;;
60426;SDS011;46274;47.168;27.604;2023-12-20T09:07:54;44.37;;;15.07;;
60426;SDS011;46274;47.168;27.604;2023-12-20T09:13:56;46.77;;;18.47;;
60426;SDS011;46274;47.168;27.604;2023-12-20T09:20:08;33.40;;;13.57;;
60426;SDS011;46274;47.168;27.604;2023-12-20T09:26:26;22.17;;;10.27;;
60426;SDS011;46274;47.168;27.604;2023-12-20T09:32:29;410.37;;;178.87;;
60426;SDS011;46274;47.168;27.604;2023-12-20T09:38:36;27.00;;;12.27;;
60426;SDS011;46274;47.168;27.604;2023-12-20T09:45:04;17.50;;;7.77;;
60426;SDS011;46274;47.168;27.604;2023-12-20T10:04:19;20.60;;;9.20;;
60426;SDS011;46274;47.168;27.604;2023-12-20T10:17:48;22.27;;;8.20;;
60426;SDS011;46274;47.168;27.604;2023-12-20T10:24:16;23.07;;;9.30;;
60426;SDS011;46274;47.168;27.604;2023-12-20T10:30:27;18.50;;;7.27;;
60426;SDS011;46274;47.168;27.604;2023-12-20T10:43:24;11.20;;;5.17;;
60426;SDS011;46274;47.168;27.604;2023-12-20T10:49:55;12.40;;;5.17;;
60426;SDS011;46274;47.168;27.604;2023-12-20T10:56:12;15.53;;;6.47;;
60426;SDS011;46274;47.168;27.604;2023-12-20T11:02:33;20.23;;;7.73;;
60426;SDS011;46274;47.168;27.604;2023-12-20T11:09:12;16.77;;;7.07;;
60426;SDS011;46274;47.168;27.604;2023-12-20T11:15:32;25.47;;;8.43;;
60426;SDS011;46274;47.168;27.604;2023-12-20T11:21:52;25.67;;;10.20;;
60426;SDS011;46274;47.168;27.604;2023-12-20T11:28:16;24.40;;;8.37;;
60426;SDS011;46274;47.168;27.604;2023-12-20T11:34:58;16.00;;;6.63;;
60426;SDS011;46274;47.168;27.604;2023-12-20T11:41:23;26.00;;;11.23;;
60426;SDS011;46274;47.168;27.604;2023-12-20T11:47:48;40.60;;;13.60;;
60426;SDS011;46274;47.168;27.604;2023-12-20T11:53:59;29.27;;;12.00;;
60426;SDS011;46274;47.168;27.604;2023-12-20T12:00:29;26.30;;;12.00;;
60426;SDS011;46274;47.168;27.604;2023-12-20T12:06:38;30.13;;;10.90;;
60426;SDS011;46274;47.168;27.604;2023-12-20T12:12:46;38.70;;;13.23;;
60426;SDS011;46274;47.168;27.604;2023-12-20T12:18:59;35.60;;;15.00;;
60426;SDS011;46274;47.168;27.604;2023-12-20T12:25:14;49.57;;;19.43;;
60426;SDS011;46274;47.168;27.604;2023-12-20T12:31:41;28.40;;;11.03;;
60426;SDS011;46274;47.168;27.604;2023-12-20T12:37:44;43.53;;;17.50;;
60426;SDS011;46274;47.168;27.604;2023-12-20T12:43:59;158.07;;;63.87;;
60426;SDS011;46274;47.168;27.604;2023-12-20T12:50:18;42.47;;;18.00;;
60426;SDS011;46274;47.168;27.604;2023-12-20T12:56:44;35.03;;;11.37;;
60426;SDS011;46274;47.168;27.604;2023-12-20T13:02:59;35.63;;;13.60;;
60426;SDS011;46274;47.168;27.604;2023-12-20T13:09:33;49.50;;;23.20;;
60426;SDS011;46274;47.168;27.604;2023-12-20T13:16:03;46.87;;;20.07;;
60426;SDS011;46274;47.168;27.604;2023-12-20T13:22:20;42.73;;;17.07;;
60426;SDS011;46274;47.168;27.604;2023-12-20T13:35:08;58.00;;;21.30;;
60426;SDS011;46274;47.168;27.604;2023-12-20T13:41:25;55.03;;;20.40;;
60426;SDS011;46274;47.168;27.604;2023-12-20T14:02:03;56.43;;;22.90;;
60426;SDS011;46274;47.168;27.604;2023-12-20T14:15:03;85.67;;;33.00;;
60426;SDS011;46274;47.168;27.604;2023-12-20T14:21:29;81.97;;;34.10;;
60426;SDS011;46274;47.168;27.604;2023-12-20T14:27:33;133.83;;;48.57;;
60426;SDS011;46274;47.168;27.604;2023-12-20T14:33:59;103.23;;;34.17;;
60426;SDS011;46274;47.168;27.604;2023-12-20T14:40:12;88.73;;;33.73;;
60426;SDS011;46274;47.168;27.604;2023-12-20T14:46:52;53.90;;;23.60;;
60426;SDS011;46274;47.168;27.604;2023-12-20T14:53:18;49.40;;;19.87;;
60426;SDS011;46274;47.168;27.604;2023-12-20T14:59:32;119.13;;;38.43;;
60426;SDS011;46274;47.168;27.604;2023-12-20T15:05:43;109.13;;;35.87;;
60426;SDS011;46274;47.168;27.604;2023-12-20T15:11:53;92.20;;;33.70;;
60426;SDS011;46274;47.168;27.604;2023-12-20T15:18:22;91.63;;;37.43;;
60426;SDS011;46274;47.168;27.604;2023-12-20T15:25:05;131.90;;;44.63;;
60426;SDS011;46274;47.168;27.604;2023-12-20T15:31:29;141.50;;;51.90;;
60426;SDS011;46274;47.168;27.604;2023-12-20T15:38:12;97.00;;;36.00;;
60426;SDS011;46274;47.168;27.604;2023-12-20T15:44:24;82.50;;;34.60;;
60426;SDS011;46274;47.168;27.604;2023-12-20T15:50:38;81.60;;;35.43;;
60426;SDS011;46274;47.168;27.604;2023-12-20T15:56:46;79.83;;;32.50;;
60426;SDS011;46274;47.168;27.604;2023-12-20T16:02:53;104.03;;;38.13;;
60426;SDS011;46274;47.168;27.604;2023-12-20T16:09:03;97.23;;;37.17;;
60426;SDS011;46274;47.168;27.604;2023-12-20T16:15:12;106.10;;;40.97;;
60426;SDS011;46274;47.168;27.604;2023-12-20T16:21:18;110.67;;;37.00;;
60426;SDS011;46274;47.168;27.604;2023-12-20T16:27:29;133.90;;;46.27;;
60426;SDS011;46274;47.168;27.604;2023-12-20T16:33:39;105.80;;;38.07;;
60426;SDS011;46274;47.168;27.604;2023-12-20T16:39:50;109.70;;;44.40;;
60426;SDS011;46274;47.168;27.604;2023-12-20T16:46:00;95.43;;;39.47;;
60426;SDS011;46274;47.168;27.604;2023-12-20T16:52:10;102.23;;;43.53;;
60426;SDS011;46274;47.168;27.604;2023-12-20T16:58:17;140.17;;;52.47;;
60426;SDS011;46274;47.168;27.604;2023-12-20T17:04:26;160.80;;;64.30;;
60426;SDS011;46274;47.168;27.604;2023-12-20T17:10:45;139.67;;;54.67;;
60426;SDS011;46274;47.168;27.604;2023-12-20T17:16:56;144.07;;;54.97;;
60426;SDS011;46274;47.168;27.604;2023-12-20T17:23:03;143.80;;;52.27;;
60426;SDS011;46274;47.168;27.604;2023-12-20T17:29:05;146.70;;;54.93;;
60426;SDS011;46274;47.168;27.604;2023-12-20T17:35:20;227.80;;;83.30;;
60426;SDS011;46274;47.168;27.604;2023-12-20T17:41:23;157.97;;;57.13;;
60426;SDS011;46274;47.168;27.604;2023-12-20T17:47:25;176.13;;;67.80;;
60426;SDS011;46274;47.168;27.604;2023-12-20T17:53:38;126.23;;;52.97;;
60426;SDS011;46274;47.168;27.604;2023-12-20T17:59:44;110.67;;;45.43;;
60426;SDS011;46274;47.168;27.604;2023-12-20T18:05:53;162.17;;;62.53;;
60426;SDS011;46274;47.168;27.604;2023-12-20T18:11:59;199.53;;;72.90;;
60426;SDS011;46274;47.168;27.604;2023-12-20T18:18:05;181.30;;;65.83;;
60426;SDS011;46274;47.168;27.604;2023-12-20T18:24:16;404.13;;;131.87;;
60426;SDS011;46274;47.168;27.604;2023-12-20T18:30:34;304.60;;;113.70;;
60426;SDS011;46274;47.168;27.604;2023-12-20T18:36:39;203.17;;;74.07;;
60426;SDS011;46274;47.168;27.604;2023-12-20T18:42:43;174.93;;;65.13;;
60426;SDS011;46274;47.168;27.604;2023-12-20T18:48:56;221.33;;;72.17;;
60426;SDS011;46274;47.168;27.604;2023-12-20T18:55:04;259.20;;;85.43;;
60426;SDS011;46274;47.168;27.604;2023-12-20T19:01:21;139.63;;;55.57;;
60426;SDS011;46274;47.168;27.604;2023-12-20T19:07:26;113.33;;;42.70;;
60426;SDS011;46274;47.168;27.604;2023-12-20T19:13:39;147.60;;;55.00;;
60426;SDS011;46274;47.168;27.604;2023-12-20T19:19:45;186.03;;;66.33;;
60426;SDS011;46274;47.168;27.604;2023-12-20T19:25:55;184.23;;;64.80;;
60426;SDS011;46274;47.168;27.604;2023-12-20T19:32:21;172.50;;;66.30;;
60426;SDS011;46274;47.168;27.604;2023-12-20T19:38:32;188.90;;;68.70;;
60426;SDS011;46274;47.168;27.604;2023-12-20T19:44:47;133.43;;;50.70;;
60426;SDS011;46274;47.168;27.604;2023-12-20T19:50:53;116.87;;;44.63;;
60426;SDS011;46274;47.168;27.604;2023-12-20T19:57:04;102.80;;;35.80;;
60426;SDS011;46274;47.168;27.604;2023-12-20T20:03:19;64.87;;;24.90;;
60426;SDS011;46274;47.168;27.604;2023-12-20T20:09:23;65.10;;;26.47;;
60426;SDS011;46274;47.168;27.604;2023-12-20T20:15:26;79.67;;;28.93;;
60426;SDS011;46274;47.168;27.604;2023-12-20T20:21:38;68.87;;;26.83;;
60426;SDS011;46274;47.168;27.604;2023-12-20T20:27:49;74.43;;;29.60;;
60426;SDS011;46274;47.168;27.604;2023-12-20T20:33:56;74.53;;;29.37;;
60426;SDS011;46274;47.168;27.604;2023-12-20T20:40:09;74.30;;;28.10;;
60426;SDS011;46274;47.168;27.604;2023-12-20T20:46:20;66.83;;;24.97;;
60426;SDS011;46274;47.168;27.604;2023-12-20T20:52:26;56.43;;;22.97;;
60426;SDS011;46274;47.168;27.604;2023-12-20T20:58:29;58.60;;;23.23;;
60426;SDS011;46274;47.168;27.604;2023-12-20T21:04:43;62.37;;;21.57;;
60426;SDS011;46274;47.168;27.604;2023-12-20T21:10:56;53.83;;;21.37;;
60426;SDS011;46274;47.168;27.604;2023-12-20T21:17:04;47.13;;;20.53;;
60426;SDS011;46274;47.168;27.604;2023-12-20T21:23:10;51.00;;;18.87;;
60426;SDS011;46274;47.168;27.604;2023-12-20T21:29:12;42.53;;;18.40;;
60426;SDS011;46274;47.168;27.604;2023-12-20T21:35:28;42.83;;;16.83;;
60426;SDS011;46274;47.168;27.604;2023-12-20T21:41:30;36.70;;;15.50;;
60426;SDS011;46274;47.168;27.604;2023-12-20T21:47:38;34.80;;;14.80;;
60426;SDS011;46274;47.168;27.604;2023-12-20T21:54:07;35.83;;;13.83;;
60426;SDS011;46274;47.168;27.604;2023-12-20T22:00:17;38.30;;;11.97;;
60426;SDS011;46274;47.168;27.604;2023-12-20T22:06:29;27.40;;;11.27;;
60426;SDS011;46274;47.168;27.604;2023-12-20T22:12:32;26.57;;;11.80;;
60426;SDS011;46274;47.168;27.604;2023-12-20T22:18:59;20.60;;;10.27;;
60426;SDS011;46274;47.168;27.604;2023-12-20T22:25:13;23.50;;;9.70;;
60426;SDS011;46274;47.168;27.604;2023-12-20T22:31:18;22.40;;;9.13;;
60426;SDS011;46274;47.168;27.604;2023-12-20T22:37:27;22.73;;;9.40;;
60426;SDS011;46274;47.168;27.604;2023-12-20T22:43:40;25.03;;;9.20;;
60426;SDS011;46274;47.168;27.604;2023-12-20T22:49:44;19.57;;;7.47;;
60426;SDS011;46274;47.168;27.604;2023-12-20T22:55:50;25.60;;;7.63;;
60426;SDS011;46274;47.168;27.604;2023-12-20T23:02:06;14.27;;;6.43;;
60426;SDS011;46274;47.168;27.604;2023-12-20T23:08:11;20.63;;;6.20;;
60426;SDS011;46274;47.168;27.604;2023-12-20T23:14:22;14.83;;;5.77;;
60426;SDS011;46274;47.168;27.604;2023-12-20T23:20:30;13.27;;;5.50;;
60426;SDS011;46274;47.168;27.604;2023-12-20T23:26:33;13.13;;;5.60;;
60426;SDS011;46274;47.168;27.604;2023-12-20T23:32:35;9.90;;;5.33;;
60426;SDS011;46274;47.168;27.604;2023-12-20T23:38:54;15.10;;;5.93;;
60426;SDS011;46274;47.168;27.604;2023-12-20T23:44:59;10.43;;;4.70;;
60426;SDS011;46274;47.168;27.604;2023-12-20T23:51:11;12.47;;;4.70;;
60426;SDS011;46274;47.168;27.604;2023-12-20T23:57:23;8.57;;;4.37;;
